createdAt,value
2022-09-23T00:00:09.965Z,4.35
2022-09-23T00:01:11.696Z,3.92
2022-09-23T00:02:13.459Z,3.92
2022-09-23T00:03:16.080Z,4.40
2022-09-23T00:04:17.623Z,3.70
2022-09-23T00:05:19.151Z,4.10
2022-09-23T00:06:21.988Z,3.90
2022-09-23T00:07:23.582Z,4.10
2022-09-23T00:08:25.636Z,4.13
2022-09-23T00:09:27.259Z,4.25
2022-09-23T00:10:29.162Z,3.92
2022-09-23T00:11:30.689Z,3.65
2022-09-23T00:12:32.371Z,4.35
2022-09-23T00:13:38.593Z,4.43
2022-09-23T00:14:40.153Z,3.77
2022-09-23T00:15:41.701Z,4.35
2022-09-23T00:16:43.298Z,4.65
2022-09-23T00:17:45.153Z,4.68
2022-09-23T00:18:46.701Z,4.38
2022-09-23T00:19:48.389Z,4.22
2022-09-23T00:20:49.920Z,4.30
2022-09-23T00:21:51.505Z,4.78
2022-09-23T00:22:53.430Z,4.28
2022-09-23T00:23:54.935Z,4.85
2022-09-23T00:24:56.770Z,3.90
2022-09-23T00:25:59.145Z,4.45
2022-09-23T00:27:01.328Z,4.40
2022-09-23T00:28:03.290Z,4.40
2022-09-23T00:29:04.980Z,4.07
2022-09-23T00:30:08.225Z,4.13
2022-09-23T00:31:11.552Z,4.07
2022-09-23T00:32:13.146Z,4.15
2022-09-23T00:33:14.745Z,4.00
2022-09-23T00:34:16.791Z,4.57
2022-09-23T00:35:18.366Z,4.40
2022-09-23T00:36:19.900Z,4.57
2022-09-23T00:37:21.421Z,3.78
2022-09-23T00:38:23.072Z,3.97
2022-09-23T00:39:26.107Z,4.03
2022-09-23T00:40:27.779Z,4.00
2022-09-23T00:41:29.327Z,5.10
2022-09-23T00:42:30.861Z,4.68
2022-09-23T00:43:52.254Z,4.15
2022-09-23T00:44:57.909Z,4.10
2022-09-23T00:45:59.474Z,3.97
2022-09-23T00:47:01.120Z,4.07
2022-09-23T00:48:02.756Z,4.30
2022-09-23T00:49:09.294Z,4.40
2022-09-23T00:50:15.775Z,4.40
2022-09-23T00:51:19.344Z,3.78
2022-09-23T00:52:20.985Z,3.88
2022-09-23T00:53:23.574Z,3.78
2022-09-23T00:54:25.154Z,3.50
2022-09-23T00:55:48.882Z,3.70
2022-09-23T00:56:50.456Z,4.10
2022-09-23T00:57:54.578Z,4.00
2022-09-23T00:58:56.112Z,4.03
2022-09-23T00:59:58.031Z,4.22
2022-09-23T01:01:00.583Z,4.18
2022-09-23T01:02:02.247Z,3.78
2022-09-23T01:03:05.966Z,4.30
2022-09-23T01:04:07.682Z,4.00
2022-09-23T01:05:09.551Z,3.85
2022-09-23T01:06:11.183Z,4.00
2022-09-23T01:07:13.746Z,3.43
2022-09-23T01:08:15.268Z,3.72
2022-09-23T01:09:17.268Z,3.95
2022-09-23T01:10:18.980Z,3.78
2022-09-23T01:11:50.220Z,4.40
2022-09-23T01:12:57.906Z,3.63
2022-09-23T01:14:19.070Z,3.70
2022-09-23T01:15:40.604Z,3.60
2022-09-23T01:16:51.448Z,3.53
2022-09-23T01:18:12.214Z,3.67
2022-09-23T01:19:39.680Z,3.70
2022-09-23T01:20:46.463Z,3.20
2022-09-23T01:22:05.115Z,3.58
2022-09-23T01:23:43.760Z,2.95
2022-09-23T01:24:52.311Z,3.58
2022-09-23T01:26:27.577Z,3.67
2022-09-23T01:27:59.892Z,3.55
2022-09-23T01:29:34.946Z,3.88
2022-09-23T01:30:48.317Z,3.25
2022-09-23T01:32:18.293Z,3.97
2022-09-23T01:33:35.626Z,3.53
2022-09-23T01:34:49.551Z,3.20
2022-09-23T01:36:06.321Z,3.92
2022-09-23T01:37:20.910Z,4.03
2022-09-23T01:38:34.643Z,3.53
2022-09-23T01:40:10.338Z,3.40
2022-09-23T01:41:20.807Z,3.45
2022-09-23T01:42:33.630Z,3.15
2022-09-23T01:43:47.814Z,3.70
2022-09-23T01:44:53.749Z,4.10
2022-09-23T01:45:57.763Z,3.80
2022-09-23T01:47:10.792Z,3.85
2022-09-23T01:48:23.665Z,3.60
2022-09-23T01:49:32.430Z,3.90
2022-09-23T01:50:54.025Z,3.70
2022-09-23T01:52:01.600Z,3.70
2022-09-23T01:53:06.075Z,3.35
2022-09-23T01:54:16.058Z,3.45
2022-09-23T01:55:21.020Z,3.60
2022-09-23T01:56:24.568Z,3.72
2022-09-23T01:57:29.567Z,3.70
2022-09-23T01:58:42.806Z,3.65
2022-09-23T01:59:57.538Z,3.63
2022-09-23T02:01:05.078Z,3.83
2022-09-23T02:02:15.366Z,3.88
2022-09-23T02:03:42.734Z,3.60
2022-09-23T02:05:12.153Z,3.42
2022-09-23T02:06:28.854Z,3.35
2022-09-23T02:07:35.913Z,3.60
2022-09-23T02:09:12.015Z,3.83
2022-09-23T02:10:28.533Z,3.97
2022-09-23T02:11:30.222Z,3.75
2022-09-23T02:12:31.763Z,3.15
2022-09-23T02:13:45.182Z,4.30
2022-09-23T02:15:08.666Z,4.05
2022-09-23T02:16:14.753Z,4.05
2022-09-23T02:17:22.994Z,3.75
2022-09-23T02:18:33.963Z,3.85
2022-09-23T02:19:49.060Z,3.88
2022-09-23T02:20:51.202Z,4.38
2022-09-23T02:21:55.525Z,5.20
2022-09-23T02:23:13.402Z,6.80
2022-09-23T02:24:15.636Z,7.50
2022-09-23T02:25:17.480Z,7.95
2022-09-23T02:26:27.396Z,6.78
2022-09-23T02:27:38.091Z,6.55
2022-09-23T02:28:46.505Z,6.13
2022-09-23T02:30:07.298Z,4.82
2022-09-23T02:31:16.436Z,4.45
2022-09-23T02:32:18.590Z,4.30
2022-09-23T02:33:35.348Z,4.13
2022-09-23T02:35:01.886Z,4.35
2022-09-23T02:36:07.980Z,3.97
2022-09-23T02:37:35.242Z,4.55
2022-09-23T02:38:42.640Z,3.53
2022-09-23T02:39:53.013Z,3.72
2022-09-23T02:40:58.747Z,4.00
2022-09-23T02:42:07.785Z,4.40
2022-09-23T02:43:12.664Z,3.83
2022-09-23T02:44:15.643Z,4.22
2022-09-23T02:45:17.204Z,3.67
2022-09-23T02:46:18.846Z,4.00
2022-09-23T02:47:20.745Z,3.80
2022-09-23T02:48:24.425Z,4.03
2022-09-23T02:49:27.664Z,4.10
2022-09-23T02:50:30.978Z,4.20
2022-09-23T02:51:37.908Z,3.88
2022-09-23T02:52:39.454Z,3.97
2022-09-23T02:53:41.105Z,3.50
2022-09-23T02:54:42.644Z,3.97
2022-09-23T02:55:44.254Z,3.60
2022-09-23T02:56:45.807Z,3.88
2022-09-23T02:57:48.290Z,4.38
2022-09-23T02:58:52.579Z,3.90
2022-09-23T02:59:54.192Z,4.13
2022-09-23T03:01:11.025Z,3.80
2022-09-23T03:02:23.753Z,3.90
2022-09-23T03:03:43.640Z,3.75
2022-09-23T03:04:55.031Z,3.47
2022-09-23T03:05:57.743Z,4.30
2022-09-23T03:07:22.331Z,4.10
2022-09-23T03:08:36.787Z,4.13
2022-09-23T03:09:53.135Z,3.30
2022-09-23T03:11:04.386Z,4.18
2022-09-23T03:12:34.379Z,4.57
2022-09-23T03:13:54.079Z,5.20
2022-09-23T03:15:01.330Z,4.15
2022-09-23T03:16:29.484Z,5.85
2022-09-23T03:18:01.919Z,3.88
2022-09-23T03:19:06.430Z,4.32
2022-09-23T03:20:13.431Z,4.50
2022-09-23T03:21:36.012Z,4.95
2022-09-23T03:22:39.963Z,4.55
2022-09-23T03:23:41.663Z,4.78
2022-09-23T03:24:44.942Z,4.40
2022-09-23T03:25:47.422Z,5.32
2022-09-23T03:26:48.949Z,5.30
2022-09-23T03:27:50.482Z,6.30
2022-09-23T03:28:52.071Z,6.57
2022-09-23T03:29:53.794Z,5.82
2022-09-23T03:30:55.378Z,5.77
2022-09-23T03:31:56.917Z,5.00
2022-09-23T03:33:00.243Z,5.88
2022-09-23T03:34:03.512Z,4.90
2022-09-23T03:35:05.543Z,4.97
2022-09-23T03:36:27.380Z,5.32
2022-09-23T03:37:40.135Z,5.03
2022-09-23T03:38:43.598Z,4.70
2022-09-23T03:40:43.542Z,4.95
2022-09-23T03:41:48.494Z,4.47
2022-09-23T03:42:50.191Z,4.00
2022-09-23T03:43:53.385Z,4.60
2022-09-23T03:44:56.440Z,4.47
2022-09-23T03:45:58.246Z,5.03
2022-09-23T03:47:02.301Z,4.45
2022-09-23T03:48:04.433Z,4.10
2022-09-23T03:49:13.263Z,4.50
2022-09-23T03:50:17.343Z,4.55
2022-09-23T03:51:23.863Z,4.80
2022-09-23T03:52:25.834Z,4.28
2022-09-23T03:53:27.422Z,3.90
2022-09-23T03:54:30.042Z,4.32
2022-09-23T03:55:32.371Z,4.78
2022-09-23T03:56:33.937Z,4.40
2022-09-23T03:57:36.225Z,4.00
2022-09-23T03:58:38.257Z,5.10
2022-09-23T03:59:39.994Z,4.75
2022-09-23T04:00:42.419Z,4.38
2022-09-23T04:01:44.309Z,4.07
2022-09-23T04:02:45.997Z,4.53
2022-09-23T04:03:48.415Z,4.60
2022-09-23T04:04:50.130Z,4.80
2022-09-23T04:05:51.909Z,4.43
2022-09-23T04:06:56.933Z,4.60
2022-09-23T04:07:58.494Z,4.72
2022-09-23T04:09:01.652Z,5.03
2022-09-23T04:10:05.043Z,4.70
2022-09-23T04:11:06.870Z,4.47
2022-09-23T04:12:09.505Z,4.93
2022-09-23T04:13:11.427Z,4.45
2022-09-23T04:14:13.555Z,4.57
2022-09-23T04:15:15.170Z,4.45
2022-09-23T04:16:16.794Z,4.82
2022-09-23T04:17:18.421Z,4.57
2022-09-23T04:18:21.393Z,4.50
2022-09-23T04:19:23.009Z,6.32
2022-09-23T04:20:26.093Z,4.65
2022-09-23T04:21:27.823Z,4.57
2022-09-23T04:22:29.383Z,5.00
2022-09-23T04:23:31.028Z,5.22
2022-09-23T04:24:32.654Z,4.90
2022-09-23T04:25:34.480Z,5.32
2022-09-23T04:26:36.287Z,5.10
2022-09-23T04:27:38.154Z,4.85
2022-09-23T04:28:39.816Z,5.90
2022-09-23T04:29:41.529Z,5.00
2022-09-23T04:30:43.871Z,5.40
2022-09-23T04:31:45.561Z,5.47
2022-09-23T04:32:47.204Z,5.00
2022-09-23T04:33:48.759Z,5.13
2022-09-23T04:34:50.311Z,5.57
2022-09-23T04:35:52.132Z,4.50
2022-09-23T04:36:53.767Z,5.38
2022-09-23T04:37:55.358Z,5.50
2022-09-23T04:38:57.141Z,5.22
2022-09-23T04:39:58.773Z,5.43
2022-09-23T04:41:00.506Z,5.35
2022-09-23T04:42:03.887Z,5.30
2022-09-23T04:43:05.481Z,5.43
2022-09-23T04:44:07.128Z,6.00
2022-09-23T04:45:08.990Z,5.27
2022-09-23T04:46:11.589Z,5.40
2022-09-23T04:47:13.386Z,4.85
2022-09-23T04:48:14.965Z,5.07
2022-09-23T04:49:16.612Z,4.80
2022-09-23T04:50:18.254Z,4.85
2022-09-23T04:51:21.138Z,5.22
2022-09-23T04:52:22.758Z,4.90
2022-09-23T04:53:24.352Z,5.50
2022-09-23T04:54:25.918Z,4.68
2022-09-23T04:55:27.500Z,5.13
2022-09-23T04:56:32.170Z,5.20
2022-09-23T04:57:34.629Z,4.80
2022-09-23T04:58:36.646Z,5.28
2022-09-23T04:59:38.227Z,4.90
2022-09-23T05:00:39.813Z,5.47
2022-09-23T05:01:41.727Z,4.82
2022-09-23T05:02:46.725Z,5.07
2022-09-23T05:03:48.271Z,4.93
2022-09-23T05:04:50.433Z,5.22
2022-09-23T05:05:53.031Z,4.90
2022-09-23T05:06:54.733Z,5.03
2022-09-23T05:07:56.423Z,4.95
2022-09-23T05:08:58.408Z,5.15
2022-09-23T05:10:00.039Z,5.35
2022-09-23T05:11:02.309Z,5.05
2022-09-23T05:12:04.142Z,5.40
2022-09-23T05:13:05.692Z,5.38
2022-09-23T05:14:07.329Z,5.88
2022-09-23T05:15:09.042Z,4.95
2022-09-23T05:16:12.115Z,5.30
2022-09-23T05:17:14.768Z,6.03
2022-09-23T05:18:20.683Z,5.85
2022-09-23T05:19:23.093Z,4.63
2022-09-23T05:20:24.742Z,5.22
2022-09-23T05:21:29.140Z,5.15
2022-09-23T05:22:30.861Z,5.60
2022-09-23T05:23:32.446Z,5.53
2022-09-23T05:24:34.134Z,5.15
2022-09-23T05:25:38.325Z,5.90
2022-09-23T05:26:40.215Z,5.20
2022-09-23T05:27:42.385Z,5.68
2022-09-23T05:28:44.157Z,5.63
2022-09-23T05:29:46.442Z,4.88
2022-09-23T05:30:47.998Z,5.63
2022-09-23T05:31:49.701Z,5.20
2022-09-23T05:32:51.316Z,5.82
2022-09-23T05:33:57.616Z,5.00
2022-09-23T05:34:59.549Z,5.07
2022-09-23T05:36:01.572Z,5.72
2022-09-23T05:37:03.310Z,6.07
2022-09-23T05:38:04.895Z,6.13
2022-09-23T05:39:07.637Z,5.35
2022-09-23T05:40:09.767Z,4.68
2022-09-23T05:41:12.777Z,5.63
2022-09-23T05:42:14.709Z,5.47
2022-09-23T05:43:16.289Z,4.90
2022-09-23T05:44:18.183Z,5.30
2022-09-23T05:45:19.747Z,5.68
2022-09-23T05:46:27.973Z,4.55
2022-09-23T05:47:29.653Z,4.60
2022-09-23T05:48:31.702Z,4.45
2022-09-23T05:49:58.005Z,4.93
2022-09-23T05:50:54.952Z,3.90
2022-09-23T05:51:56.743Z,5.07
2022-09-23T05:52:58.338Z,4.90
2022-09-23T05:54:00.470Z,5.00
2022-09-23T05:55:02.729Z,5.30
2022-09-23T05:57:06.252Z,4.60
2022-09-23T05:58:07.830Z,4.53
2022-09-23T05:59:09.462Z,4.40
2022-09-23T06:00:11.467Z,5.05
2022-09-23T06:01:18.201Z,4.72
2022-09-23T06:02:20.016Z,4.78
2022-09-23T06:03:21.671Z,4.85
2022-09-23T06:04:23.368Z,5.28
2022-09-23T06:05:24.982Z,5.50
2022-09-23T06:06:30.713Z,4.65
2022-09-23T06:07:32.690Z,5.60
2022-09-23T06:08:34.671Z,4.87
2022-09-23T06:09:36.892Z,5.65
2022-09-23T06:10:42.875Z,5.05
2022-09-23T06:11:44.503Z,5.32
2022-09-23T06:12:46.080Z,5.00
2022-09-23T06:13:47.692Z,4.32
2022-09-23T06:14:50.723Z,5.38
2022-09-23T06:15:52.716Z,5.45
2022-09-23T06:16:54.343Z,5.30
2022-09-23T06:17:55.913Z,5.28
2022-09-23T06:19:00.649Z,5.37
2022-09-23T06:20:04.897Z,5.60
2022-09-23T06:21:06.595Z,5.32
2022-09-23T06:22:08.304Z,5.05
2022-09-23T06:23:10.871Z,5.55
2022-09-23T06:24:17.087Z,5.75
2022-09-23T06:25:23.139Z,6.50
2022-09-23T06:26:24.696Z,7.05
2022-09-23T06:27:26.361Z,5.47
2022-09-23T06:28:32.426Z,5.85
2022-09-23T06:29:34.063Z,5.47
2022-09-23T06:30:35.655Z,5.38
2022-09-23T06:31:37.615Z,6.25
2022-09-23T06:32:39.299Z,5.93
2022-09-23T06:33:42.487Z,5.68
2022-09-23T06:34:51.422Z,5.72
2022-09-23T06:35:59.900Z,5.55
2022-09-23T06:37:13.552Z,5.07
2022-09-23T06:38:16.399Z,5.05
2022-09-23T06:39:17.957Z,5.22
2022-09-23T06:40:19.851Z,4.90
2022-09-23T06:41:21.542Z,4.85
2022-09-23T06:42:23.088Z,5.65
2022-09-23T06:43:25.483Z,5.20
2022-09-23T06:44:28.527Z,5.10
2022-09-23T06:45:30.125Z,5.13
2022-09-23T06:46:31.874Z,5.40
2022-09-23T06:47:33.566Z,5.80
2022-09-23T06:48:37.792Z,5.25
2022-09-23T06:49:39.412Z,4.95
2022-09-23T06:50:40.950Z,5.07
2022-09-23T06:51:42.737Z,5.07
2022-09-23T06:52:51.037Z,5.05
2022-09-23T06:53:53.021Z,4.93
2022-09-23T06:54:54.587Z,4.88
2022-09-23T06:56:03.813Z,4.50
2022-09-23T06:57:05.503Z,4.80
2022-09-23T06:58:08.186Z,5.10
2022-09-23T06:59:10.551Z,4.80
2022-09-23T07:00:13.322Z,5.05
2022-09-23T07:01:16.437Z,4.57
2022-09-23T07:02:18.211Z,4.65
2022-09-23T07:03:20.593Z,4.47
2022-09-23T07:04:24.113Z,4.90
2022-09-23T07:05:28.904Z,5.20
2022-09-23T07:06:30.526Z,4.63
2022-09-23T07:07:32.136Z,4.80
2022-09-23T07:08:33.962Z,4.53
2022-09-23T07:09:35.647Z,4.65
2022-09-23T07:10:37.242Z,4.53
2022-09-23T07:11:39.474Z,4.37
2022-09-23T07:12:41.338Z,5.35
2022-09-23T07:13:42.969Z,4.85
2022-09-23T07:14:44.841Z,4.78
2022-09-23T07:15:51.956Z,4.38
2022-09-23T07:16:53.922Z,4.47
2022-09-23T07:17:56.456Z,4.53
2022-09-23T07:18:58.127Z,4.20
2022-09-23T07:19:59.709Z,4.78
2022-09-23T07:21:15.116Z,4.40
2022-09-23T07:22:17.921Z,4.60
2022-09-23T07:23:19.829Z,4.38
2022-09-23T07:24:22.357Z,4.35
2022-09-23T07:25:23.980Z,4.40
2022-09-23T07:26:25.792Z,4.45
2022-09-23T07:27:27.529Z,4.10
2022-09-23T07:28:29.260Z,3.97
2022-09-23T07:29:43.504Z,4.57
2022-09-23T07:30:57.564Z,4.03
2022-09-23T07:32:12.363Z,4.07
2022-09-23T07:33:28.641Z,3.83
2022-09-23T07:34:32.921Z,3.50
2022-09-23T07:35:34.664Z,3.50
2022-09-23T07:36:37.503Z,4.05
2022-09-23T07:37:39.802Z,4.10
2022-09-23T07:38:45.200Z,3.50
2022-09-23T07:39:47.385Z,3.65
2022-09-23T07:40:49.242Z,4.43
2022-09-23T07:41:51.892Z,3.50
2022-09-23T07:42:53.894Z,4.10
2022-09-23T07:43:58.705Z,3.63
2022-09-23T07:45:00.341Z,3.67
2022-09-23T07:46:03.283Z,3.53
2022-09-23T07:47:05.181Z,3.13
2022-09-23T07:48:06.790Z,3.53
2022-09-23T07:49:08.456Z,4.00
2022-09-23T07:50:13.161Z,3.53
2022-09-23T07:51:22.632Z,3.95
2022-09-23T07:52:24.255Z,3.30
2022-09-23T07:53:26.386Z,3.80
2022-09-23T07:54:29.854Z,4.47
2022-09-23T07:55:31.481Z,4.35
2022-09-23T07:56:33.455Z,4.28
2022-09-23T07:57:35.124Z,4.10
2022-09-23T07:58:36.745Z,3.50
2022-09-23T07:59:38.335Z,3.55
2022-09-23T08:00:39.992Z,3.03
2022-09-23T08:01:43.903Z,3.45
2022-09-23T08:02:48.443Z,3.78
2022-09-23T08:03:53.851Z,3.45
2022-09-23T08:04:55.626Z,3.50
2022-09-23T08:06:10.122Z,3.50
2022-09-23T08:07:12.204Z,3.08
2022-09-23T08:08:14.244Z,3.50
2022-09-23T08:09:16.456Z,3.85
2022-09-23T08:10:21.163Z,3.80
2022-09-23T08:11:24.146Z,3.53
2022-09-23T08:12:25.711Z,3.67
2022-09-23T08:13:27.287Z,3.53
2022-09-23T08:14:28.911Z,3.10
2022-09-23T08:15:31.242Z,3.50
2022-09-23T08:16:33.000Z,3.85
2022-09-23T08:17:34.583Z,3.40
2022-09-23T08:18:36.307Z,3.38
2022-09-23T08:19:37.882Z,3.20
2022-09-23T08:20:47.265Z,3.75
2022-09-23T08:21:52.852Z,3.25
2022-09-23T08:22:54.742Z,3.75
2022-09-23T08:23:56.315Z,3.63
2022-09-23T08:24:58.484Z,4.03
2022-09-23T08:26:01.807Z,3.83
2022-09-23T08:27:03.733Z,3.63
2022-09-23T08:28:05.310Z,3.55
2022-09-23T08:29:09.849Z,3.28
2022-09-23T08:30:11.864Z,3.15
2022-09-23T08:31:14.239Z,3.58
2022-09-23T08:32:16.184Z,3.00
2022-09-23T08:33:23.083Z,3.10
2022-09-23T08:34:27.465Z,2.65
2022-09-23T08:35:29.361Z,2.92
2022-09-23T08:36:31.018Z,2.67
2022-09-23T08:37:32.643Z,3.03
2022-09-23T08:38:34.253Z,2.65
2022-09-23T08:39:35.892Z,2.42
2022-09-23T08:40:39.237Z,2.50
2022-09-23T08:41:59.337Z,2.45
2022-09-23T08:43:00.966Z,3.25
2022-09-23T08:44:04.669Z,2.90
2022-09-23T08:45:06.858Z,3.42
2022-09-23T08:46:11.016Z,2.38
2022-09-23T08:47:12.555Z,2.60
2022-09-23T08:48:15.834Z,2.85
2022-09-23T08:49:26.498Z,2.30
2022-09-23T08:50:42.543Z,2.20
2022-09-23T08:51:47.368Z,2.83
2022-09-23T08:52:55.023Z,2.60
2022-09-23T08:53:56.644Z,2.67
2022-09-23T08:54:58.222Z,2.63
2022-09-23T08:56:00.204Z,2.85
2022-09-23T08:57:02.085Z,2.95
2022-09-23T08:58:27.036Z,2.90
2022-09-23T08:59:43.068Z,3.00
2022-09-23T09:00:47.864Z,2.70
2022-09-23T09:01:53.146Z,4.15
2022-09-23T09:02:54.754Z,2.70
2022-09-23T09:03:57.039Z,3.55
2022-09-23T09:05:01.203Z,3.65
2022-09-23T09:06:02.778Z,3.50
2022-09-23T09:07:31.928Z,3.83
2022-09-23T09:08:33.831Z,3.42
2022-09-23T09:09:48.948Z,3.10
2022-09-23T09:10:50.674Z,3.35
2022-09-23T09:11:55.020Z,3.38
2022-09-23T09:13:09.583Z,3.92
2022-09-23T09:14:17.044Z,3.45
2022-09-23T09:15:18.539Z,3.33
2022-09-23T09:16:42.184Z,3.70
2022-09-23T09:17:59.384Z,3.28
2022-09-23T09:19:01.392Z,3.22
2022-09-23T09:20:16.867Z,3.60
2022-09-23T09:21:18.435Z,3.40
2022-09-23T09:23:58.387Z,3.53
2022-09-23T09:25:22.593Z,3.50
2022-09-23T09:26:28.264Z,3.40
2022-09-23T09:27:29.885Z,3.00
2022-09-23T09:28:39.223Z,3.67
2022-09-23T09:29:50.070Z,3.60
2022-09-23T09:30:54.504Z,3.95
2022-09-23T09:31:57.602Z,3.75
2022-09-23T09:33:07.551Z,3.33
2022-09-23T09:34:36.789Z,3.70
2022-09-23T09:35:53.578Z,3.50
2022-09-23T09:37:07.159Z,9.07
2022-09-23T09:38:09.141Z,4.20
2022-09-23T09:39:14.231Z,3.47
2022-09-23T09:40:20.300Z,3.28
2022-09-23T09:41:24.727Z,2.95
2022-09-23T09:42:40.446Z,3.28
2022-09-23T09:43:44.163Z,3.30
2022-09-23T09:44:58.558Z,3.30
2022-09-23T09:46:26.983Z,4.03
2022-09-23T09:47:48.952Z,3.33
2022-09-23T09:48:54.510Z,3.42
2022-09-23T09:50:08.836Z,3.30
2022-09-23T09:51:21.609Z,3.70
2022-09-23T09:52:26.094Z,3.47
2022-09-23T09:53:32.138Z,2.80
2022-09-23T09:54:33.774Z,3.38
2022-09-23T09:55:36.130Z,3.20
2022-09-23T09:56:37.766Z,3.20
2022-09-23T09:57:44.305Z,3.20
2022-09-23T09:58:49.187Z,3.35
2022-09-23T09:59:50.737Z,3.30
2022-09-23T10:00:52.999Z,2.80
2022-09-23T10:02:22.167Z,3.10
2022-09-23T10:03:32.453Z,3.05
2022-09-23T10:04:35.086Z,3.42
2022-09-23T10:05:45.697Z,3.28
2022-09-23T10:07:12.353Z,3.15
2022-09-23T10:08:35.083Z,3.20
2022-09-23T10:09:37.380Z,3.38
2022-09-23T10:10:40.316Z,3.42
2022-09-23T10:11:42.020Z,3.13
2022-09-23T10:12:46.743Z,3.05
2022-09-23T10:14:01.040Z,3.33
2022-09-23T10:15:02.637Z,3.10
2022-09-23T10:16:04.395Z,3.17
2022-09-23T10:17:06.881Z,2.80
2022-09-23T10:18:29.139Z,3.10
2022-09-23T10:19:30.922Z,2.90
2022-09-23T10:20:38.079Z,2.60
2022-09-23T10:21:40.846Z,2.80
2022-09-23T10:22:42.912Z,3.38
2022-09-23T10:23:55.688Z,3.28
2022-09-23T10:24:58.776Z,2.97
2022-09-23T10:26:01.980Z,2.90
2022-09-23T10:27:07.857Z,3.15
2022-09-23T10:28:31.730Z,2.78
2022-09-23T10:29:50.011Z,2.67
2022-09-23T10:31:08.099Z,2.50
2022-09-23T10:32:28.592Z,3.03
2022-09-23T10:33:31.233Z,2.80
2022-09-23T10:34:33.136Z,3.25
2022-09-23T10:35:35.139Z,3.17
2022-09-23T10:36:39.155Z,3.15
2022-09-23T10:37:58.950Z,2.95
2022-09-23T10:39:23.029Z,2.80
2022-09-23T10:40:48.734Z,2.65
2022-09-23T10:42:22.387Z,3.38
2022-09-23T10:44:00.949Z,2.97
2022-09-23T10:45:41.058Z,2.97
2022-09-23T10:47:04.703Z,2.88
2022-09-23T10:48:36.115Z,2.75
2022-09-23T10:50:08.119Z,2.60
2022-09-23T10:51:15.824Z,2.80
2022-09-23T10:52:46.491Z,2.60
2022-09-23T10:54:25.141Z,2.17
2022-09-23T10:55:45.622Z,2.10
2022-09-23T10:56:50.754Z,2.28
2022-09-23T10:57:58.542Z,2.00
2022-09-23T10:59:03.113Z,2.00
2022-09-23T11:00:09.077Z,1.80
2022-09-23T11:01:22.268Z,2.25
2022-09-23T11:02:35.144Z,2.30
2022-09-23T11:03:42.181Z,2.75
2022-09-23T11:05:12.082Z,2.65
2022-09-23T11:06:42.633Z,2.22
2022-09-23T11:08:23.034Z,2.13
2022-09-23T11:09:40.610Z,2.20
2022-09-23T11:11:04.041Z,1.90
2022-09-23T11:12:18.561Z,2.10
2022-09-23T11:13:40.758Z,2.25
2022-09-23T11:15:00.671Z,2.30
2022-09-23T11:16:20.840Z,2.40
2022-09-23T11:17:22.390Z,2.33
2022-09-23T11:18:49.279Z,2.05
2022-09-23T11:20:09.817Z,2.20
2022-09-23T11:21:24.230Z,2.90
2022-09-23T11:22:32.407Z,2.15
2022-09-23T11:24:00.278Z,2.00
2022-09-23T11:25:43.573Z,2.50
2022-09-23T11:27:05.081Z,2.05
2022-09-23T11:28:17.910Z,2.10
2022-09-23T11:29:22.321Z,2.10
2022-09-23T11:30:38.592Z,2.38
2022-09-23T11:32:17.552Z,1.98
2022-09-23T11:33:28.378Z,2.40
2022-09-23T11:34:52.543Z,2.17
2022-09-23T11:35:59.115Z,2.47
2022-09-23T11:37:15.407Z,1.83
2022-09-23T11:38:26.307Z,2.03
2022-09-23T11:39:40.248Z,2.40
2022-09-23T11:40:44.120Z,1.88
2022-09-23T11:41:47.961Z,1.65
2022-09-23T11:43:01.520Z,2.00
2022-09-23T11:44:14.888Z,1.80
2022-09-23T11:45:19.074Z,1.80
2022-09-23T11:46:37.840Z,1.83
2022-09-23T11:47:57.631Z,1.90
2022-09-23T11:49:08.181Z,2.03
2022-09-23T11:50:17.833Z,2.38
2022-09-23T11:51:35.033Z,2.45
2022-09-23T11:52:41.506Z,2.08
2022-09-23T11:53:48.551Z,2.15
2022-09-23T11:55:21.588Z,2.60
2022-09-23T11:56:35.319Z,2.65
2022-09-23T11:57:48.996Z,2.20
2022-09-23T11:59:36.039Z,2.28
2022-09-23T12:00:49.683Z,1.98
2022-09-23T12:02:11.219Z,2.50
2022-09-23T12:03:38.142Z,1.73
2022-09-23T12:04:54.559Z,2.72
2022-09-23T12:06:04.308Z,2.28
2022-09-23T12:07:08.453Z,2.10
2022-09-23T12:08:15.842Z,2.00
2022-09-23T12:10:05.552Z,2.55
2022-09-23T12:11:27.271Z,2.25
2022-09-23T12:13:05.035Z,2.42
2022-09-23T12:14:26.749Z,2.70
2022-09-23T12:15:37.426Z,2.70
2022-09-23T12:16:58.211Z,2.92
2022-09-23T12:18:11.133Z,4.50
2022-09-23T12:19:32.491Z,4.20
2022-09-23T12:20:52.786Z,3.10
2022-09-23T12:22:13.246Z,2.80
2022-09-23T12:23:29.826Z,2.67
2022-09-23T12:24:33.982Z,2.05
2022-09-23T12:25:47.077Z,2.10
2022-09-23T12:26:50.672Z,2.40
2022-09-23T12:27:53.162Z,1.90
2022-09-23T12:28:55.219Z,2.22
2022-09-23T12:30:02.171Z,1.83
2022-09-23T12:31:04.710Z,1.80
2022-09-23T12:32:10.194Z,1.85
2022-09-23T12:33:24.611Z,2.10
2022-09-23T12:34:34.502Z,1.80
2022-09-23T12:35:40.196Z,1.85
2022-09-23T12:36:42.818Z,2.03
2022-09-23T12:37:44.454Z,1.73
2022-09-23T12:39:04.388Z,1.73
2022-09-23T12:40:31.233Z,1.60
2022-09-23T12:41:37.627Z,1.88
2022-09-23T12:42:44.210Z,1.98
2022-09-23T12:43:55.407Z,1.88
2022-09-23T12:45:35.186Z,1.90
2022-09-23T12:46:36.836Z,1.83
2022-09-23T12:47:38.654Z,2.17
2022-09-23T12:48:44.329Z,2.08
2022-09-23T12:49:46.154Z,2.03
2022-09-23T12:50:51.372Z,2.03
2022-09-23T12:52:10.927Z,2.25
2022-09-23T12:53:34.372Z,2.13
2022-09-23T12:54:36.019Z,1.90
2022-09-23T12:55:41.595Z,2.00
2022-09-23T12:56:57.661Z,1.98
2022-09-23T12:57:59.253Z,1.75
2022-09-23T12:59:20.315Z,2.20
2022-09-23T13:00:26.921Z,1.90
2022-09-23T13:01:36.320Z,1.77
2022-09-23T13:02:46.914Z,1.40
2022-09-23T13:04:14.108Z,1.00
2022-09-23T13:05:41.371Z,1.00
2022-09-23T13:06:46.765Z,0.82
2022-09-23T13:07:49.066Z,0.90
2022-09-23T13:08:50.673Z,1.20
2022-09-23T13:09:56.953Z,1.00
2022-09-23T13:11:00.793Z,1.30
2022-09-23T13:12:02.925Z,1.10
2022-09-23T13:13:04.923Z,0.98
2022-09-23T13:14:07.281Z,1.10
2022-09-23T13:15:17.330Z,1.67
2022-09-23T13:16:42.004Z,1.50
2022-09-23T13:17:43.667Z,0.90
2022-09-23T13:18:57.853Z,1.00
2022-09-23T13:20:01.352Z,1.20
2022-09-23T13:21:03.004Z,0.90
2022-09-23T13:22:11.221Z,0.80
2022-09-23T13:23:25.112Z,1.35
2022-09-23T13:24:28.960Z,0.88
2022-09-23T13:25:34.718Z,1.00
2022-09-23T13:26:36.649Z,1.25
2022-09-23T13:27:38.239Z,0.95
2022-09-23T13:28:43.716Z,0.90
2022-09-23T13:29:56.340Z,0.88
2022-09-23T13:30:58.582Z,0.77
2022-09-23T13:32:02.185Z,0.68
2022-09-23T13:33:10.743Z,0.70
2022-09-23T13:34:13.212Z,1.00
2022-09-23T13:35:16.825Z,0.90
2022-09-23T13:36:19.350Z,1.33
2022-09-23T13:37:46.301Z,0.95
2022-09-23T13:38:48.389Z,0.98
2022-09-23T13:39:50.375Z,0.85
2022-09-23T13:40:55.175Z,0.82
2022-09-23T13:42:00.920Z,1.00
2022-09-23T13:43:04.960Z,1.10
2022-09-23T13:44:06.688Z,0.90
2022-09-23T13:45:19.200Z,1.33
2022-09-23T13:46:22.624Z,1.10
2022-09-23T13:47:25.862Z,1.10
2022-09-23T13:48:28.520Z,1.10
2022-09-23T13:49:32.701Z,0.80
2022-09-23T13:50:35.321Z,1.00
2022-09-23T13:51:36.996Z,0.80
2022-09-23T13:52:38.588Z,1.10
2022-09-23T13:53:40.258Z,0.80
2022-09-23T13:54:49.415Z,0.90
2022-09-23T13:56:20.603Z,1.02
2022-09-23T13:57:33.832Z,0.98
2022-09-23T13:58:35.774Z,0.90
2022-09-23T13:59:38.168Z,1.00
2022-09-23T14:00:39.935Z,1.40
2022-09-23T14:01:41.522Z,0.98
2022-09-23T14:02:43.522Z,1.00
2022-09-23T14:03:45.269Z,1.13
2022-09-23T14:04:47.415Z,1.00
2022-09-23T14:05:49.011Z,1.20
2022-09-23T14:06:50.573Z,1.13
2022-09-23T14:07:52.323Z,1.20
2022-09-23T14:08:54.915Z,1.10
2022-09-23T14:09:56.557Z,1.10
2022-09-23T14:10:58.632Z,0.90
2022-09-23T14:12:00.365Z,1.45
2022-09-23T14:13:01.965Z,1.75
2022-09-23T14:14:07.239Z,1.73
2022-09-23T14:15:15.447Z,2.65
2022-09-23T14:16:17.137Z,2.60
2022-09-23T14:17:20.837Z,1.55
2022-09-23T14:18:44.589Z,2.72
2022-09-23T14:19:46.399Z,1.30
2022-09-23T14:20:49.073Z,1.20
2022-09-23T14:21:53.079Z,1.27
2022-09-23T14:23:10.118Z,1.27
2022-09-23T14:24:17.640Z,1.42
2022-09-23T14:25:19.282Z,1.17
2022-09-23T14:26:21.581Z,1.10
2022-09-23T14:27:30.943Z,1.25
2022-09-23T14:28:32.523Z,1.13
2022-09-23T14:29:38.384Z,1.23
2022-09-23T14:30:40.067Z,0.90
2022-09-23T14:31:42.235Z,1.38
2022-09-23T14:32:44.295Z,1.23
2022-09-23T14:33:46.957Z,1.35
2022-09-23T14:34:55.024Z,1.50
2022-09-23T14:36:44.267Z,1.30
2022-09-23T14:38:05.224Z,1.30
2022-09-23T14:39:10.940Z,1.40
2022-09-23T14:40:16.344Z,1.20
2022-09-23T14:41:24.902Z,1.45
2022-09-23T14:42:27.974Z,2.20
2022-09-23T14:43:30.136Z,2.60
2022-09-23T14:44:35.221Z,1.95
2022-09-23T14:45:38.569Z,1.70
2022-09-23T14:46:56.628Z,1.20
2022-09-23T14:48:06.329Z,2.10
2022-09-23T14:49:10.520Z,2.38
2022-09-23T14:50:39.617Z,4.35
2022-09-23T14:51:41.435Z,3.63
2022-09-23T14:52:52.233Z,3.03
2022-09-23T14:53:53.795Z,9.50
2022-09-23T14:54:55.373Z,3.78
2022-09-23T14:56:18.212Z,6.78
2022-09-23T14:57:22.653Z,4.95
2022-09-23T14:58:28.709Z,6.85
2022-09-23T14:59:35.689Z,4.97
2022-09-23T15:00:37.300Z,3.00